sensor_id;sensor_type;location;lat;lon;timestamp;P1;durP1;ratioP1;P2;durP2;ratioP2
35074;SDS011;21260;34.984;32.490;2022-11-11T00:01:06;8.03;;;7.20;;
35074;SDS011;21260;34.984;32.490;2022-11-11T00:03:37;7.77;;;6.97;;
35074;SDS011;21260;34.984;32.490;2022-11-11T00:06:04;7.97;;;7.13;;
35074;SDS011;21260;34.984;32.490;2022-11-11T00:08:34;10.20;;;7.13;;
35074;SDS011;21260;34.984;32.490;2022-11-11T00:11:02;9.60;;;7.10;;
35074;SDS011;21260;34.984;32.490;2022-11-11T00:13:31;7.70;;;6.27;;
35074;SDS011;21260;34.984;32.490;2022-11-11T00:16:02;7.10;;;6.40;;
35074;SDS011;21260;34.984;32.490;2022-11-11T00:18:34;7.50;;;6.67;;
35074;SDS011;21260;34.984;32.490;2022-11-11T00:21:19;10.83;;;6.40;;
35074;SDS011;21260;34.984;32.490;2022-11-11T00:24:04;8.37;;;6.70;;
35074;SDS011;21260;34.984;32.490;2022-11-11T00:27:03;7.33;;;6.53;;
35074;SDS011;21260;34.984;32.490;2022-11-11T00:29:30;7.43;;;6.60;;
35074;SDS011;21260;34.984;32.490;2022-11-11T00:31:56;7.20;;;6.37;;
35074;SDS011;21260;34.984;32.490;2022-11-11T00:34:41;8.40;;;6.73;;
35074;SDS011;21260;34.984;32.490;2022-11-11T00:37:27;10.30;;;7.00;;
35074;SDS011;21260;34.984;32.490;2022-11-11T00:39:53;7.07;;;6.37;;
35074;SDS011;21260;34.984;32.490;2022-11-11T00:42:20;7.90;;;6.53;;
35074;SDS011;21260;34.984;32.490;2022-11-11T00:44:46;7.70;;;6.73;;
35074;SDS011;21260;34.984;32.490;2022-11-11T00:47:12;7.03;;;6.33;;
35074;SDS011;21260;34.984;32.490;2022-11-11T00:49:57;10.50;;;6.60;;
35074;SDS011;21260;34.984;32.490;2022-11-11T00:52:45;8.23;;;6.60;;
35074;SDS011;21260;34.984;32.490;2022-11-11T00:55:13;8.27;;;6.53;;
35074;SDS011;21260;34.984;32.490;2022-11-11T00:57:39;6.53;;;5.87;;
35074;SDS011;21260;34.984;32.490;2022-11-11T01:00:06;7.67;;;5.93;;
35074;SDS011;21260;34.984;32.490;2022-11-11T01:02:33;6.80;;;6.10;;
35074;SDS011;21260;34.984;32.490;2022-11-11T01:04:59;7.07;;;6.37;;
35074;SDS011;21260;34.984;32.490;2022-11-11T01:07:25;6.77;;;6.07;;
35074;SDS011;21260;34.984;32.490;2022-11-11T01:09:52;8.07;;;6.47;;
35074;SDS011;21260;34.984;32.490;2022-11-11T01:12:18;7.53;;;6.20;;
35074;SDS011;21260;34.984;32.490;2022-11-11T01:14:47;7.90;;;6.17;;
35074;SDS011;21260;34.984;32.490;2022-11-11T01:17:14;8.40;;;6.00;;
35074;SDS011;21260;34.984;32.490;2022-11-11T01:19:40;7.33;;;6.07;;
35074;SDS011;21260;34.984;32.490;2022-11-11T01:22:07;6.57;;;5.97;;
35074;SDS011;21260;34.984;32.490;2022-11-11T01:24:33;6.97;;;6.27;;
35074;SDS011;21260;34.984;32.490;2022-11-11T01:27:03;8.60;;;5.93;;
35074;SDS011;21260;34.984;32.490;2022-11-11T01:29:29;7.37;;;6.50;;
35074;SDS011;21260;34.984;32.490;2022-11-11T01:31:55;6.87;;;6.07;;
35074;SDS011;21260;34.984;32.490;2022-11-11T01:34:22;8.37;;;6.40;;
35074;SDS011;21260;34.984;32.490;2022-11-11T01:36:49;7.80;;;6.27;;
35074;SDS011;21260;34.984;32.490;2022-11-11T01:39:15;7.33;;;6.17;;
35074;SDS011;21260;34.984;32.490;2022-11-11T01:41:41;6.90;;;6.20;;
35074;SDS011;21260;34.984;32.490;2022-11-11T01:47:03;7.23;;;6.27;;
35074;SDS011;21260;34.984;32.490;2022-11-11T01:55:01;6.10;;;5.50;;
35074;SDS011;21260;34.984;32.490;2022-11-11T01:57:59;9.17;;;6.17;;
35074;SDS011;21260;34.984;32.490;2022-11-11T02:00:35;7.40;;;5.67;;
35074;SDS011;21260;34.984;32.490;2022-11-11T02:03:05;5.50;;;5.00;;
35074;SDS011;21260;34.984;32.490;2022-11-11T02:05:35;6.73;;;5.60;;
35074;SDS011;21260;34.984;32.490;2022-11-11T02:08:13;7.20;;;5.90;;
35074;SDS011;21260;34.984;32.490;2022-11-11T02:11:01;6.23;;;5.63;;
35074;SDS011;21260;34.984;32.490;2022-11-11T02:13:39;6.40;;;5.63;;
35074;SDS011;21260;34.984;32.490;2022-11-11T02:16:27;6.43;;;5.73;;
35074;SDS011;21260;34.984;32.490;2022-11-11T02:18:55;6.30;;;5.30;;
35074;SDS011;21260;34.984;32.490;2022-11-11T02:21:46;6.30;;;5.70;;
35074;SDS011;21260;34.984;32.490;2022-11-11T02:24:17;5.80;;;5.30;;
35074;SDS011;21260;34.984;32.490;2022-11-11T02:26:49;6.77;;;5.83;;
35074;SDS011;21260;34.984;32.490;2022-11-11T02:29:17;6.37;;;5.77;;
35074;SDS011;21260;34.984;32.490;2022-11-11T02:31:46;6.43;;;4.97;;
35074;SDS011;21260;34.984;32.490;2022-11-11T02:34:13;6.03;;;5.43;;
35074;SDS011;21260;34.984;32.490;2022-11-11T02:36:40;5.97;;;5.37;;
35074;SDS011;21260;34.984;32.490;2022-11-11T02:39:09;6.63;;;5.83;;
35074;SDS011;21260;34.984;32.490;2022-11-11T02:41:35;7.43;;;5.93;;
35074;SDS011;21260;34.984;32.490;2022-11-11T02:44:20;7.93;;;5.70;;
35074;SDS011;21260;34.984;32.490;2022-11-11T02:46:47;9.23;;;5.33;;
35074;SDS011;21260;34.984;32.490;2022-11-11T02:49:13;6.67;;;5.97;;
35074;SDS011;21260;34.984;32.490;2022-11-11T02:51:40;7.63;;;5.90;;
35074;SDS011;21260;34.984;32.490;2022-11-11T02:54:07;7.40;;;6.10;;
35074;SDS011;21260;34.984;32.490;2022-11-11T02:56:33;8.07;;;5.37;;
35074;SDS011;21260;34.984;32.490;2022-11-11T02:59:20;6.93;;;5.37;;
35074;SDS011;21260;34.984;32.490;2022-11-11T03:01:46;6.27;;;5.30;;
35074;SDS011;21260;34.984;32.490;2022-11-11T03:04:13;7.13;;;5.43;;
35074;SDS011;21260;34.984;32.490;2022-11-11T03:06:39;6.27;;;5.67;;
35074;SDS011;21260;34.984;32.490;2022-11-11T03:09:06;8.33;;;5.40;;
35074;SDS011;21260;34.984;32.490;2022-11-11T03:11:32;6.50;;;5.80;;
35074;SDS011;21260;34.984;32.490;2022-11-11T03:14:02;7.10;;;6.40;;
35074;SDS011;21260;34.984;32.490;2022-11-11T03:16:30;8.10;;;6.07;;
35074;SDS011;21260;34.984;32.490;2022-11-11T03:19:15;7.67;;;6.57;;
35074;SDS011;21260;34.984;32.490;2022-11-11T03:21:42;7.70;;;5.97;;
35074;SDS011;21260;34.984;32.490;2022-11-11T03:24:09;6.77;;;5.90;;
35074;SDS011;21260;34.984;32.490;2022-11-11T03:26:36;7.57;;;6.77;;
35074;SDS011;21260;34.984;32.490;2022-11-11T03:29:03;11.27;;;7.20;;
35074;SDS011;21260;34.984;32.490;2022-11-11T03:31:30;10.07;;;6.77;;
35074;SDS011;21260;34.984;32.490;2022-11-11T03:33:56;11.17;;;7.60;;
35074;SDS011;21260;34.984;32.490;2022-11-11T03:36:45;10.23;;;7.10;;
35074;SDS011;21260;34.984;32.490;2022-11-11T03:39:30;7.57;;;6.77;;
35074;SDS011;21260;34.984;32.490;2022-11-11T03:41:59;9.40;;;6.60;;
35074;SDS011;21260;34.984;32.490;2022-11-11T03:44:25;11.27;;;7.20;;
35074;SDS011;21260;34.984;32.490;2022-11-11T03:46:53;8.43;;;6.67;;
35074;SDS011;21260;34.984;32.490;2022-11-11T03:49:20;9.60;;;6.73;;
35074;SDS011;21260;34.984;32.490;2022-11-11T03:51:47;9.93;;;6.77;;
35074;SDS011;21260;34.984;32.490;2022-11-11T03:54:13;11.43;;;6.83;;
35074;SDS011;21260;34.984;32.490;2022-11-11T03:56:40;7.90;;;6.47;;
35074;SDS011;21260;34.984;32.490;2022-11-11T03:59:06;9.83;;;7.03;;
35074;SDS011;21260;34.984;32.490;2022-11-11T04:01:33;7.20;;;6.30;;
35074;SDS011;21260;34.984;32.490;2022-11-11T04:04:18;10.43;;;7.03;;
35074;SDS011;21260;34.984;32.490;2022-11-11T04:07:04;11.27;;;6.67;;
35074;SDS011;21260;34.984;32.490;2022-11-11T04:09:53;9.27;;;6.80;;
35074;SDS011;21260;34.984;32.490;2022-11-11T04:12:39;8.40;;;6.90;;
35074;SDS011;21260;34.984;32.490;2022-11-11T04:15:25;9.40;;;7.17;;
35074;SDS011;21260;34.984;32.490;2022-11-11T04:18:10;10.70;;;6.60;;
35074;SDS011;21260;34.984;32.490;2022-11-11T04:20:41;12.50;;;7.43;;
35074;SDS011;21260;34.984;32.490;2022-11-11T04:23:27;7.53;;;6.30;;
35074;SDS011;21260;34.984;32.490;2022-11-11T04:25:53;12.97;;;7.00;;
35074;SDS011;21260;34.984;32.490;2022-11-11T04:28:25;8.20;;;6.97;;
35074;SDS011;21260;34.984;32.490;2022-11-11T04:31:09;7.60;;;6.47;;
35074;SDS011;21260;34.984;32.490;2022-11-11T04:33:36;10.67;;;7.77;;
35074;SDS011;21260;34.984;32.490;2022-11-11T04:36:03;9.90;;;6.97;;
35074;SDS011;21260;34.984;32.490;2022-11-11T04:38:29;8.57;;;6.83;;
35074;SDS011;21260;34.984;32.490;2022-11-11T04:41:14;8.07;;;6.83;;
35074;SDS011;21260;34.984;32.490;2022-11-11T04:43:41;9.97;;;7.47;;
35074;SDS011;21260;34.984;32.490;2022-11-11T04:46:27;11.07;;;7.40;;
35074;SDS011;21260;34.984;32.490;2022-11-11T04:48:54;9.90;;;7.57;;
35074;SDS011;21260;34.984;32.490;2022-11-11T04:51:21;8.77;;;7.60;;
35074;SDS011;21260;34.984;32.490;2022-11-11T04:54:07;8.63;;;7.43;;
35074;SDS011;21260;34.984;32.490;2022-11-11T04:56:34;11.10;;;6.73;;
35074;SDS011;21260;34.984;32.490;2022-11-11T04:59:14;10.50;;;7.70;;
35074;SDS011;21260;34.984;32.490;2022-11-11T05:01:41;9.33;;;7.83;;
35074;SDS011;21260;34.984;32.490;2022-11-11T05:04:26;7.80;;;6.67;;
35074;SDS011;21260;34.984;32.490;2022-11-11T05:06:53;8.37;;;6.97;;
35074;SDS011;21260;34.984;32.490;2022-11-11T05:09:38;9.30;;;7.33;;
35074;SDS011;21260;34.984;32.490;2022-11-11T05:12:05;10.00;;;7.37;;
35074;SDS011;21260;34.984;32.490;2022-11-11T05:14:32;8.13;;;7.30;;
35074;SDS011;21260;34.984;32.490;2022-11-11T05:17:17;9.83;;;7.63;;
35074;SDS011;21260;34.984;32.490;2022-11-11T05:20:02;10.43;;;8.20;;
35074;SDS011;21260;34.984;32.490;2022-11-11T05:22:53;11.60;;;7.67;;
35074;SDS011;21260;34.984;32.490;2022-11-11T05:25:21;10.60;;;7.67;;
35074;SDS011;21260;34.984;32.490;2022-11-11T05:27:51;11.37;;;7.53;;
35074;SDS011;21260;34.984;32.490;2022-11-11T05:30:20;11.20;;;7.77;;
35074;SDS011;21260;34.984;32.490;2022-11-11T05:32:48;9.17;;;7.53;;
35074;SDS011;21260;34.984;32.490;2022-11-11T05:35:15;10.50;;;8.00;;
35074;SDS011;21260;34.984;32.490;2022-11-11T05:37:42;10.83;;;7.93;;
35074;SDS011;21260;34.984;32.490;2022-11-11T05:40:29;10.13;;;8.43;;
35074;SDS011;21260;34.984;32.490;2022-11-11T05:42:57;9.73;;;7.90;;
35074;SDS011;21260;34.984;32.490;2022-11-11T05:45:26;11.60;;;7.63;;
35074;SDS011;21260;34.984;32.490;2022-11-11T05:47:53;11.90;;;8.10;;
35074;SDS011;21260;34.984;32.490;2022-11-11T05:50:20;12.50;;;8.53;;
35074;SDS011;21260;34.984;32.490;2022-11-11T05:52:48;12.17;;;8.27;;
35074;SDS011;21260;34.984;32.490;2022-11-11T05:55:15;8.90;;;8.00;;
35074;SDS011;21260;34.984;32.490;2022-11-11T05:57:42;12.03;;;8.83;;
35074;SDS011;21260;34.984;32.490;2022-11-11T06:00:09;11.27;;;8.50;;
35074;SDS011;21260;34.984;32.490;2022-11-11T06:02:37;12.93;;;9.13;;
35074;SDS011;21260;34.984;32.490;2022-11-11T06:05:05;12.87;;;8.53;;
35074;SDS011;21260;34.984;32.490;2022-11-11T06:07:36;12.70;;;9.30;;
35074;SDS011;21260;34.984;32.490;2022-11-11T06:10:07;14.20;;;9.47;;
35074;SDS011;21260;34.984;32.490;2022-11-11T06:12:53;10.40;;;8.73;;
35074;SDS011;21260;34.984;32.490;2022-11-11T06:15:38;10.60;;;8.63;;
35074;SDS011;21260;34.984;32.490;2022-11-11T06:18:06;10.73;;;8.90;;
35074;SDS011;21260;34.984;32.490;2022-11-11T06:20:32;10.70;;;8.60;;
35074;SDS011;21260;34.984;32.490;2022-11-11T06:22:59;12.83;;;9.50;;
35074;SDS011;21260;34.984;32.490;2022-11-11T06:25:29;11.17;;;8.47;;
35074;SDS011;21260;34.984;32.490;2022-11-11T06:28:17;12.63;;;9.07;;
35074;SDS011;21260;34.984;32.490;2022-11-11T06:30:46;11.80;;;9.40;;
35074;SDS011;21260;34.984;32.490;2022-11-11T06:33:16;13.93;;;9.00;;
35074;SDS011;21260;34.984;32.490;2022-11-11T06:35:45;12.33;;;9.93;;
35074;SDS011;21260;34.984;32.490;2022-11-11T06:38:12;10.27;;;8.73;;
35074;SDS011;21260;34.984;32.490;2022-11-11T06:40:43;11.57;;;9.17;;
35074;SDS011;21260;34.984;32.490;2022-11-11T06:43:13;12.07;;;8.83;;
35074;SDS011;21260;34.984;32.490;2022-11-11T06:45:39;11.07;;;8.53;;
35074;SDS011;21260;34.984;32.490;2022-11-11T06:48:05;9.47;;;8.37;;
35074;SDS011;21260;34.984;32.490;2022-11-11T06:50:32;11.97;;;8.90;;
35074;SDS011;21260;34.984;32.490;2022-11-11T06:53:03;10.37;;;8.70;;
35074;SDS011;21260;34.984;32.490;2022-11-11T06:55:31;12.10;;;8.40;;
35074;SDS011;21260;34.984;32.490;2022-11-11T07:00:34;9.93;;;8.50;;
35074;SDS011;21260;34.984;32.490;2022-11-11T07:03:01;12.30;;;8.77;;
35074;SDS011;21260;34.984;32.490;2022-11-11T07:05:28;9.63;;;8.33;;
35074;SDS011;21260;34.984;32.490;2022-11-11T07:07:56;12.70;;;8.70;;
35074;SDS011;21260;34.984;32.490;2022-11-11T07:10:30;12.20;;;8.33;;
35074;SDS011;21260;34.984;32.490;2022-11-11T07:13:00;10.37;;;8.77;;
35074;SDS011;21260;34.984;32.490;2022-11-11T07:15:26;11.50;;;9.00;;
35074;SDS011;21260;34.984;32.490;2022-11-11T07:17:53;10.20;;;8.43;;
35074;SDS011;21260;34.984;32.490;2022-11-11T07:20:20;9.67;;;8.43;;
35074;SDS011;21260;34.984;32.490;2022-11-11T07:22:47;13.50;;;8.60;;
35074;SDS011;21260;34.984;32.490;2022-11-11T07:25:15;9.97;;;8.13;;
35074;SDS011;21260;34.984;32.490;2022-11-11T07:27:42;13.27;;;8.33;;
35074;SDS011;21260;34.984;32.490;2022-11-11T07:30:09;11.93;;;8.47;;
35074;SDS011;21260;34.984;32.490;2022-11-11T07:32:43;12.63;;;8.27;;
35074;SDS011;21260;34.984;32.490;2022-11-11T07:35:15;9.37;;;7.67;;
35074;SDS011;21260;34.984;32.490;2022-11-11T07:37:43;13.47;;;8.60;;
35074;SDS011;21260;34.984;32.490;2022-11-11T07:40:11;9.03;;;7.97;;
35074;SDS011;21260;34.984;32.490;2022-11-11T07:42:42;10.83;;;8.67;;
35074;SDS011;21260;34.984;32.490;2022-11-11T07:45:09;11.63;;;8.53;;
35074;SDS011;21260;34.984;32.490;2022-11-11T07:47:37;10.50;;;8.40;;
35074;SDS011;21260;34.984;32.490;2022-11-11T07:50:04;14.30;;;8.57;;
35074;SDS011;21260;34.984;32.490;2022-11-11T07:52:32;13.23;;;7.90;;
35074;SDS011;21260;34.984;32.490;2022-11-11T07:55:01;12.07;;;8.57;;
35074;SDS011;21260;34.984;32.490;2022-11-11T07:57:27;11.53;;;8.20;;
35074;SDS011;21260;34.984;32.490;2022-11-11T07:59:54;12.23;;;8.10;;
35074;SDS011;21260;34.984;32.490;2022-11-11T08:02:20;14.00;;;8.37;;
35074;SDS011;21260;34.984;32.490;2022-11-11T08:04:46;14.37;;;9.00;;
35074;SDS011;21260;34.984;32.490;2022-11-11T08:07:12;13.27;;;9.60;;
35074;SDS011;21260;34.984;32.490;2022-11-11T08:09:39;10.80;;;9.70;;
35074;SDS011;21260;34.984;32.490;2022-11-11T08:12:05;11.47;;;9.37;;
35074;SDS011;21260;34.984;32.490;2022-11-11T08:14:51;11.27;;;9.37;;
35074;SDS011;21260;34.984;32.490;2022-11-11T08:17:18;11.60;;;8.07;;
35074;SDS011;21260;34.984;32.490;2022-11-11T08:19:44;13.80;;;9.10;;
35074;SDS011;21260;34.984;32.490;2022-11-11T08:22:10;10.83;;;8.77;;
35074;SDS011;21260;34.984;32.490;2022-11-11T08:24:36;11.20;;;8.93;;
35074;SDS011;21260;34.984;32.490;2022-11-11T08:27:03;9.63;;;8.40;;
35074;SDS011;21260;34.984;32.490;2022-11-11T08:29:29;10.63;;;8.50;;
35074;SDS011;21260;34.984;32.490;2022-11-11T08:31:56;15.87;;;9.90;;
35074;SDS011;21260;34.984;32.490;2022-11-11T08:34:22;9.53;;;7.70;;
35074;SDS011;21260;34.984;32.490;2022-11-11T08:36:49;11.60;;;8.73;;
35074;SDS011;21260;34.984;32.490;2022-11-11T08:39:15;10.27;;;8.30;;
35074;SDS011;21260;34.984;32.490;2022-11-11T08:41:41;10.77;;;8.50;;
35074;SDS011;21260;34.984;32.490;2022-11-11T08:44:08;12.57;;;8.97;;
35074;SDS011;21260;34.984;32.490;2022-11-11T08:46:34;10.33;;;8.40;;
35074;SDS011;21260;34.984;32.490;2022-11-11T08:49:00;11.97;;;7.97;;
35074;SDS011;21260;34.984;32.490;2022-11-11T08:51:27;12.13;;;7.50;;
35074;SDS011;21260;34.984;32.490;2022-11-11T08:53:53;10.03;;;7.13;;
35074;SDS011;21260;34.984;32.490;2022-11-11T08:56:19;14.00;;;7.87;;
35074;SDS011;21260;34.984;32.490;2022-11-11T08:58:46;9.70;;;8.23;;
35074;SDS011;21260;34.984;32.490;2022-11-11T09:01:12;14.10;;;7.67;;
35074;SDS011;21260;34.984;32.490;2022-11-11T09:03:40;9.60;;;7.53;;
35074;SDS011;21260;34.984;32.490;2022-11-11T09:06:08;10.07;;;7.47;;
35074;SDS011;21260;34.984;32.490;2022-11-11T09:08:36;9.73;;;7.20;;
35074;SDS011;21260;34.984;32.490;2022-11-11T09:11:02;10.93;;;7.77;;
35074;SDS011;21260;34.984;32.490;2022-11-11T09:13:29;9.80;;;7.70;;
35074;SDS011;21260;34.984;32.490;2022-11-11T09:15:55;8.93;;;7.03;;
35074;SDS011;21260;34.984;32.490;2022-11-11T09:18:23;9.30;;;7.20;;
35074;SDS011;21260;34.984;32.490;2022-11-11T09:20:51;12.43;;;6.87;;
35074;SDS011;21260;34.984;32.490;2022-11-11T09:23:18;13.03;;;7.43;;
35074;SDS011;21260;34.984;32.490;2022-11-11T09:25:44;7.80;;;6.93;;
35074;SDS011;21260;34.984;32.490;2022-11-11T09:28:10;7.90;;;6.90;;
35074;SDS011;21260;34.984;32.490;2022-11-11T09:30:38;11.83;;;7.50;;
35074;SDS011;21260;34.984;32.490;2022-11-11T09:33:04;10.33;;;7.63;;
35074;SDS011;21260;34.984;32.490;2022-11-11T09:35:30;8.23;;;6.87;;
35074;SDS011;21260;34.984;32.490;2022-11-11T09:37:58;9.67;;;6.87;;
35074;SDS011;21260;34.984;32.490;2022-11-11T09:40:26;11.27;;;7.30;;
35074;SDS011;21260;34.984;32.490;2022-11-11T09:43:34;10.10;;;6.63;;
35074;SDS011;21260;34.984;32.490;2022-11-11T09:49:02;13.53;;;7.57;;
35074;SDS011;21260;34.984;32.490;2022-11-11T09:54:52;9.33;;;7.40;;
35074;SDS011;21260;34.984;32.490;2022-11-11T09:57:27;9.33;;;7.20;;
35074;SDS011;21260;34.984;32.490;2022-11-11T10:00:02;11.20;;;8.57;;
35074;SDS011;21260;34.984;32.490;2022-11-11T10:02:48;16.10;;;8.30;;
35074;SDS011;21260;34.984;32.490;2022-11-11T10:08:40;11.30;;;8.17;;
35074;SDS011;21260;34.984;32.490;2022-11-11T10:12:12;13.33;;;8.50;;
35074;SDS011;21260;34.984;32.490;2022-11-11T10:14:31;12.03;;;8.40;;
35074;SDS011;21260;34.984;32.490;2022-11-11T10:17:13;13.33;;;8.73;;
35074;SDS011;21260;34.984;32.490;2022-11-11T10:20:11;14.50;;;9.27;;
35074;SDS011;21260;34.984;32.490;2022-11-11T10:26:15;14.23;;;8.17;;
35074;SDS011;21260;34.984;32.490;2022-11-11T10:29:14;11.80;;;8.07;;
35074;SDS011;21260;34.984;32.490;2022-11-11T10:32:02;12.67;;;8.80;;
35074;SDS011;21260;34.984;32.490;2022-11-11T10:34:49;11.47;;;8.93;;
35074;SDS011;21260;34.984;32.490;2022-11-11T10:37:19;12.17;;;8.83;;
35074;SDS011;21260;34.984;32.490;2022-11-11T10:42:52;12.37;;;8.10;;
35074;SDS011;21260;34.984;32.490;2022-11-11T10:45:21;10.70;;;8.40;;
35074;SDS011;21260;34.984;32.490;2022-11-11T10:50:52;11.80;;;8.33;;
35074;SDS011;21260;34.984;32.490;2022-11-11T10:53:59;13.77;;;8.57;;
35074;SDS011;21260;34.984;32.490;2022-11-11T11:02:05;11.10;;;9.23;;
35074;SDS011;21260;34.984;32.490;2022-11-11T11:04:55;20.40;;;9.40;;
35074;SDS011;21260;34.984;32.490;2022-11-11T11:07:33;17.33;;;9.20;;
35074;SDS011;21260;34.984;32.490;2022-11-11T11:12:51;11.40;;;8.67;;
35074;SDS011;21260;34.984;32.490;2022-11-11T11:15:29;13.97;;;8.83;;
35074;SDS011;21260;34.984;32.490;2022-11-11T11:20:53;11.57;;;8.50;;
35074;SDS011;21260;34.984;32.490;2022-11-11T11:26:19;11.30;;;8.70;;
35074;SDS011;21260;34.984;32.490;2022-11-11T11:28:53;14.00;;;9.13;;
35074;SDS011;21260;34.984;32.490;2022-11-11T11:31:33;14.13;;;8.83;;
35074;SDS011;21260;34.984;32.490;2022-11-11T11:34:05;13.40;;;9.00;;
35074;SDS011;21260;34.984;32.490;2022-11-11T11:36:32;13.97;;;9.40;;
35074;SDS011;21260;34.984;32.490;2022-11-11T11:38:58;11.80;;;9.23;;
35074;SDS011;21260;34.984;32.490;2022-11-11T11:41:58;11.30;;;9.57;;
35074;SDS011;21260;34.984;32.490;2022-11-11T11:44:29;11.07;;;9.13;;
35074;SDS011;21260;34.984;32.490;2022-11-11T11:55:27;19.40;;;9.80;;
35074;SDS011;21260;34.984;32.490;2022-11-11T11:58:17;15.97;;;9.47;;
35074;SDS011;21260;34.984;32.490;2022-11-11T12:01:00;18.20;;;9.53;;
35074;SDS011;21260;34.984;32.490;2022-11-11T12:06:38;12.40;;;8.47;;
35074;SDS011;21260;34.984;32.490;2022-11-11T12:12:58;14.17;;;9.47;;
35074;SDS011;21260;34.984;32.490;2022-11-11T12:15:59;10.83;;;8.60;;
35074;SDS011;21260;34.984;32.490;2022-11-11T12:19:00;11.97;;;9.47;;
35074;SDS011;21260;34.984;32.490;2022-11-11T12:21:54;12.13;;;9.67;;
35074;SDS011;21260;34.984;32.490;2022-11-11T12:24:47;15.63;;;9.10;;
35074;SDS011;21260;34.984;32.490;2022-11-11T12:30:18;10.07;;;8.87;;
35074;SDS011;21260;34.984;32.490;2022-11-11T12:45:46;13.50;;;9.67;;
35074;SDS011;21260;34.984;32.490;2022-11-11T12:51:25;20.30;;;10.57;;
35074;SDS011;21260;34.984;32.490;2022-11-11T12:54:23;14.00;;;9.87;;
35074;SDS011;21260;34.984;32.490;2022-11-11T12:57:25;14.97;;;8.80;;
35074;SDS011;21260;34.984;32.490;2022-11-11T13:00:23;13.33;;;9.10;;
35074;SDS011;21260;34.984;32.490;2022-11-11T13:05:55;12.83;;;10.77;;
35074;SDS011;21260;34.984;32.490;2022-11-11T13:15:01;16.63;;;10.20;;
35074;SDS011;21260;34.984;32.490;2022-11-11T13:17:41;15.27;;;10.60;;
35074;SDS011;21260;34.984;32.490;2022-11-11T13:23:02;15.07;;;9.47;;
35074;SDS011;21260;34.984;32.490;2022-11-11T13:25:34;15.73;;;10.20;;
35074;SDS011;21260;34.984;32.490;2022-11-11T13:28:14;17.87;;;10.80;;
35074;SDS011;21260;34.984;32.490;2022-11-11T13:33:48;16.53;;;10.43;;
35074;SDS011;21260;34.984;32.490;2022-11-11T13:36:24;14.40;;;10.37;;
35074;SDS011;21260;34.984;32.490;2022-11-11T13:38:58;14.17;;;10.80;;
35074;SDS011;21260;34.984;32.490;2022-11-11T13:41:33;13.90;;;11.07;;
35074;SDS011;21260;34.984;32.490;2022-11-11T13:44:06;13.20;;;10.37;;
35074;SDS011;21260;34.984;32.490;2022-11-11T13:49:28;16.10;;;11.03;;
35074;SDS011;21260;34.984;32.490;2022-11-11T13:55:35;12.47;;;11.00;;
35074;SDS011;21260;34.984;32.490;2022-11-11T13:58:26;13.20;;;11.20;;
35074;SDS011;21260;34.984;32.490;2022-11-11T14:01:05;13.47;;;11.63;;
35074;SDS011;21260;34.984;32.490;2022-11-11T14:03:36;14.83;;;12.40;;
35074;SDS011;21260;34.984;32.490;2022-11-11T14:08:50;15.97;;;12.03;;
35074;SDS011;21260;34.984;32.490;2022-11-11T14:13:57;12.67;;;11.37;;
35074;SDS011;21260;34.984;32.490;2022-11-11T14:17:03;17.73;;;12.67;;
35074;SDS011;21260;34.984;32.490;2022-11-11T14:19:37;14.57;;;11.57;;
35074;SDS011;21260;34.984;32.490;2022-11-11T14:25:40;14.23;;;11.97;;
35074;SDS011;21260;34.984;32.490;2022-11-11T14:27:52;16.17;;;11.03;;
35074;SDS011;21260;34.984;32.490;2022-11-11T14:30:26;19.17;;;12.87;;
35074;SDS011;21260;34.984;32.490;2022-11-11T14:33:07;15.47;;;12.00;;
35074;SDS011;21260;34.984;32.490;2022-11-11T14:41:57;14.97;;;12.77;;
35074;SDS011;21260;34.984;32.490;2022-11-11T15:00:44;17.57;;;12.17;;
35074;SDS011;21260;34.984;32.490;2022-11-11T15:06:17;16.87;;;12.60;;
35074;SDS011;21260;34.984;32.490;2022-11-11T15:12:04;17.63;;;13.17;;
35074;SDS011;21260;34.984;32.490;2022-11-11T15:18:18;16.83;;;13.07;;
35074;SDS011;21260;34.984;32.490;2022-11-11T15:20:59;17.67;;;12.87;;
35074;SDS011;21260;34.984;32.490;2022-11-11T15:24:09;17.40;;;13.00;;
35074;SDS011;21260;34.984;32.490;2022-11-11T15:38:28;16.60;;;12.17;;
35074;SDS011;21260;34.984;32.490;2022-11-11T15:40:55;14.43;;;12.40;;
35074;SDS011;21260;34.984;32.490;2022-11-11T15:43:25;14.40;;;12.40;;
35074;SDS011;21260;34.984;32.490;2022-11-11T15:45:56;18.60;;;13.33;;
35074;SDS011;21260;34.984;32.490;2022-11-11T15:48:33;16.00;;;12.83;;
35074;SDS011;21260;34.984;32.490;2022-11-11T15:51:16;16.63;;;12.50;;
35074;SDS011;21260;34.984;32.490;2022-11-11T15:53:48;15.57;;;12.57;;
35074;SDS011;21260;34.984;32.490;2022-11-11T15:56:27;17.97;;;13.17;;
35074;SDS011;21260;34.984;32.490;2022-11-11T15:58:56;17.70;;;13.03;;
35074;SDS011;21260;34.984;32.490;2022-11-11T16:01:40;16.40;;;12.73;;
35074;SDS011;21260;34.984;32.490;2022-11-11T16:04:09;16.77;;;12.70;;
35074;SDS011;21260;34.984;32.490;2022-11-11T16:06:42;19.40;;;13.50;;
35074;SDS011;21260;34.984;32.490;2022-11-11T16:09:10;16.63;;;12.20;;
35074;SDS011;21260;34.984;32.490;2022-11-11T16:11:49;16.80;;;13.20;;
35074;SDS011;21260;34.984;32.490;2022-11-11T16:17:05;17.17;;;11.77;;
35074;SDS011;21260;34.984;32.490;2022-11-11T16:19:34;15.70;;;11.87;;
35074;SDS011;21260;34.984;32.490;2022-11-11T16:22:09;18.27;;;13.23;;
35074;SDS011;21260;34.984;32.490;2022-11-11T16:24:43;16.83;;;12.20;;
35074;SDS011;21260;34.984;32.490;2022-11-11T16:27:13;14.13;;;12.37;;
35074;SDS011;21260;34.984;32.490;2022-11-11T16:29:55;18.40;;;14.37;;
35074;SDS011;21260;34.984;32.490;2022-11-11T16:32:52;16.50;;;14.23;;
35074;SDS011;21260;34.984;32.490;2022-11-11T16:35:23;16.23;;;13.47;;
35074;SDS011;21260;34.984;32.490;2022-11-11T16:38:03;18.43;;;13.57;;
35074;SDS011;21260;34.984;32.490;2022-11-11T16:40:34;18.33;;;12.30;;
35074;SDS011;21260;34.984;32.490;2022-11-11T16:46:02;19.70;;;12.50;;
35074;SDS011;21260;34.984;32.490;2022-11-11T16:48:46;14.07;;;11.87;;
35074;SDS011;21260;34.984;32.490;2022-11-11T16:51:23;14.70;;;12.30;;
35074;SDS011;21260;34.984;32.490;2022-11-11T16:56:50;16.67;;;12.50;;
35074;SDS011;21260;34.984;32.490;2022-11-11T16:59:31;17.73;;;12.60;;
35074;SDS011;21260;34.984;32.490;2022-11-11T17:02:18;13.73;;;11.57;;
35074;SDS011;21260;34.984;32.490;2022-11-11T17:04:48;14.93;;;12.40;;
35074;SDS011;21260;34.984;32.490;2022-11-11T17:12:37;16.07;;;11.73;;
35074;SDS011;21260;34.984;32.490;2022-11-11T17:15:05;16.93;;;12.53;;
35074;SDS011;21260;34.984;32.490;2022-11-11T17:17:36;16.23;;;13.07;;
35074;SDS011;21260;34.984;32.490;2022-11-11T17:20:07;14.07;;;12.63;;
35074;SDS011;21260;34.984;32.490;2022-11-11T17:22:52;16.53;;;12.87;;
35074;SDS011;21260;34.984;32.490;2022-11-11T17:25:22;15.93;;;12.87;;
35074;SDS011;21260;34.984;32.490;2022-11-11T17:27:48;18.47;;;13.27;;
35074;SDS011;21260;34.984;32.490;2022-11-11T17:30:14;16.70;;;12.67;;
35074;SDS011;21260;34.984;32.490;2022-11-11T17:32:41;16.57;;;13.20;;
35074;SDS011;21260;34.984;32.490;2022-11-11T17:35:08;17.93;;;13.90;;
35074;SDS011;21260;34.984;32.490;2022-11-11T17:37:35;16.43;;;13.60;;
35074;SDS011;21260;34.984;32.490;2022-11-11T17:40:04;16.97;;;12.93;;
35074;SDS011;21260;34.984;32.490;2022-11-11T17:42:34;15.30;;;13.70;;
35074;SDS011;21260;34.984;32.490;2022-11-11T17:45:02;19.83;;;13.97;;